This is the latest recevied weather packets stored in our database for station/object OK5TVR-5. If no packets are shown the sender has not sent any weather packets the latest 10 day(s).
| Time | Temp. | Humidity | Pressure | Rain* | Wind** | Luminosity | Snow |
|---|---|---|---|---|---|---|---|
| 1788545241 | 25° C | 50% | 1004.2 hPa | 0 mm | - | 0 W/m² | - |
| 1788544341 | 25.56° C | 48% | 1004.2 hPa | 0 mm | - | 1 W/m² | - |
| 1788543441 | 26.11° C | 47% | 1004 hPa | 0 mm | - | 3 W/m² | - |
| 1788542541 | 26.67° C | 45% | 1004 hPa | 0 mm | - | 6 W/m² | - |
| 1788541641 | 26.67° C | 44% | 1004.1 hPa | 0 mm | - | 11 W/m² | - |
| 1788540741 | 27.22° C | 43% | 1004 hPa | 0 mm | - | 13 W/m² | - |
| 1788539841 | 27.78° C | 44% | 1003.6 hPa | 0 mm | - | 19 W/m² | - |
| 1788538941 | 28.33° C | 42% | 1003.3 hPa | 0 mm | - | 40 W/m² | - |
| 1788538041 | 28.33° C | 41% | 1003.3 hPa | 0 mm | - | 48 W/m² | - |
| 1788537141 | 28.33° C | 41% | 1003.6 hPa | 0 mm | - | 56 W/m² | - |
| 1788536241 | 28.33° C | 41% | 1003.5 hPa | 0 mm | - | 64 W/m² | - |
| 1788535341 | 28.33° C | 43% | 1003.6 hPa | 0 mm | - | 72 W/m² | - |
| 1788534441 | 28.33° C | 41% | 1003.7 hPa | 0 mm | - | 81 W/m² | - |
| 1788533541 | 28.33° C | 40% | 1003.8 hPa | 0 mm | - | 90 W/m² | - |
| 1788532641 | 27.78° C | 43% | 1004 hPa | 0 mm | - | 100 W/m² | - |
| 1788531741 | 28.33° C | 41% | 1004.1 hPa | 0 mm | - | 109 W/m² | - |
| 1788530841 | 28.89° C | 42% | 1004.4 hPa | 0 mm | - | 122 W/m² | - |
| 1788529941 | 27.78° C | 45% | 1004.6 hPa | 0 mm | - | 143 W/m² | - |
| 1788529041 | 28.89° C | 42% | 1004.5 hPa | 0 mm | - | 167 W/m² | - |
| 1788528141 | 27.22° C | 44% | 1005 hPa | 0 mm | - | 173 W/m² | - |
| 1788527241 | 27.22° C | 46% | 1005.6 hPa | 0 mm | - | 69 W/m² | - |
| 1788526362 | 27.78° C | 47% | 1005.7 hPa | 0 mm | - | 65 W/m² | - |
| 1788525441 | 26.67° C | 48% | 1006.1 hPa | 0 mm | - | 69 W/m² | - |
| 1788524541 | 28.33° C | 47% | 1005.9 hPa | 0 mm | - | 253 W/m² | - |
| 1788523641 | 26.67° C | 50% | 1006.6 hPa | 0 mm | - | 296 W/m² | - |
* Rain latest hour (hover to see other rain measurements)
** Current wind speed in m/s (hover to see current wind gust speed)